sensor_id;sensor_type;location;lat;lon;timestamp;temperature;humidity
58519;DHT22;44310;48.106;12.008;2022-08-07T00:00:24;22.50;85.90
58519;DHT22;44310;48.106;12.008;2022-08-07T00:02:52;22.60;85.90
58519;DHT22;44310;48.106;12.008;2022-08-07T00:05:22;22.60;85.70
58519;DHT22;44310;48.106;12.008;2022-08-07T00:07:51;22.60;85.70
58519;DHT22;44310;48.106;12.008;2022-08-07T00:10:27;22.50;85.50
58519;DHT22;44310;48.106;12.008;2022-08-07T00:13:00;22.60;85.50
58519;DHT22;44310;48.106;12.008;2022-08-07T00:15:43;22.60;85.50
58519;DHT22;44310;48.106;12.008;2022-08-07T00:18:20;22.60;85.60
58519;DHT22;44310;48.106;12.008;2022-08-07T00:20:55;22.60;85.40
58519;DHT22;44310;48.106;12.008;2022-08-07T00:23:32;22.60;85.20
58519;DHT22;44310;48.106;12.008;2022-08-07T00:26:01;22.50;85.10
58519;DHT22;44310;48.106;12.008;2022-08-07T00:28:39;22.50;85.20
58519;DHT22;44310;48.106;12.008;2022-08-07T00:31:11;22.50;85.10
58519;DHT22;44310;48.106;12.008;2022-08-07T00:33:44;22.60;85.70
58519;DHT22;44310;48.106;12.008;2022-08-07T00:36:14;22.60;85.80
58519;DHT22;44310;48.106;12.008;2022-08-07T00:38:43;22.60;85.70
58519;DHT22;44310;48.106;12.008;2022-08-07T00:41:10;22.60;85.60
58519;DHT22;44310;48.106;12.008;2022-08-07T00:43:42;22.60;85.50
58519;DHT22;44310;48.106;12.008;2022-08-07T00:46:29;22.60;85.40
58519;DHT22;44310;48.106;12.008;2022-08-07T00:49:00;22.60;85.40
58519;DHT22;44310;48.106;12.008;2022-08-07T00:51:29;22.60;85.50
58519;DHT22;44310;48.106;12.008;2022-08-07T00:54:17;22.60;85.50
58519;DHT22;44310;48.106;12.008;2022-08-07T00:56:46;22.60;85.30
58519;DHT22;44310;48.106;12.008;2022-08-07T00:59:17;22.60;85.30
58519;DHT22;44310;48.106;12.008;2022-08-07T01:02:05;22.60;85.20
58519;DHT22;44310;48.106;12.008;2022-08-07T01:04:46;22.60;85.00
58519;DHT22;44310;48.106;12.008;2022-08-07T01:07:14;22.60;85.00
58519;DHT22;44310;48.106;12.008;2022-08-07T01:09:42;22.60;84.80
58519;DHT22;44310;48.106;12.008;2022-08-07T01:12:29;22.60;84.80
58519;DHT22;44310;48.106;12.008;2022-08-07T01:14:57;22.60;84.70
58519;DHT22;44310;48.106;12.008;2022-08-07T01:17:30;22.60;84.70
58519;DHT22;44310;48.106;12.008;2022-08-07T01:20:04;22.60;84.70
58519;DHT22;44310;48.106;12.008;2022-08-07T01:22:36;22.60;84.70
58519;DHT22;44310;48.106;12.008;2022-08-07T01:25:13;22.60;84.70
58519;DHT22;44310;48.106;12.008;2022-08-07T01:28:01;22.60;84.70
58519;DHT22;44310;48.106;12.008;2022-08-07T01:30:30;22.60;84.50
58519;DHT22;44310;48.106;12.008;2022-08-07T01:32:58;22.60;84.30
58519;DHT22;44310;48.106;12.008;2022-08-07T01:35:28;22.60;84.20
58519;DHT22;44310;48.106;12.008;2022-08-07T01:38:16;22.60;84.10
58519;DHT22;44310;48.106;12.008;2022-08-07T01:40:58;22.60;84.00
58519;DHT22;44310;48.106;12.008;2022-08-07T01:43:27;22.60;83.90
58519;DHT22;44310;48.106;12.008;2022-08-07T01:46:04;22.60;83.80
58519;DHT22;44310;48.106;12.008;2022-08-07T01:48:34;22.60;83.70
58519;DHT22;44310;48.106;12.008;2022-08-07T01:51:19;22.60;83.60
58519;DHT22;44310;48.106;12.008;2022-08-07T01:54:08;22.60;83.50
58519;DHT22;44310;48.106;12.008;2022-08-07T02:00:08;22.60;83.40
58519;DHT22;44310;48.106;12.008;2022-08-07T02:02:44;22.60;83.40
58519;DHT22;44310;48.106;12.008;2022-08-07T02:05:38;22.60;83.60
58519;DHT22;44310;48.106;12.008;2022-08-07T02:08:16;22.60;83.60
58519;DHT22;44310;48.106;12.008;2022-08-07T02:10:51;22.60;83.90
58519;DHT22;44310;48.106;12.008;2022-08-07T02:13:26;22.60;84.50
58519;DHT22;44310;48.106;12.008;2022-08-07T02:16:16;22.70;84.80
58519;DHT22;44310;48.106;12.008;2022-08-07T02:18:55;22.70;85.00
58519;DHT22;44310;48.106;12.008;2022-08-07T02:21:24;22.60;84.90
58519;DHT22;44310;48.106;12.008;2022-08-07T02:24:12;22.70;84.80
58519;DHT22;44310;48.106;12.008;2022-08-07T02:26:44;22.60;84.60
58519;DHT22;44310;48.106;12.008;2022-08-07T02:29:12;22.70;85.00
58519;DHT22;44310;48.106;12.008;2022-08-07T02:31:40;22.60;84.90
58519;DHT22;44310;48.106;12.008;2022-08-07T02:34:08;22.60;84.60
58519;DHT22;44310;48.106;12.008;2022-08-07T02:36:43;22.60;84.20
58519;DHT22;44310;48.106;12.008;2022-08-07T02:39:13;22.60;84.30
58519;DHT22;44310;48.106;12.008;2022-08-07T02:41:46;22.60;84.10
58519;DHT22;44310;48.106;12.008;2022-08-07T02:44:22;22.60;83.80
58519;DHT22;44310;48.106;12.008;2022-08-07T02:46:58;22.50;83.50
58519;DHT22;44310;48.106;12.008;2022-08-07T02:49:28;22.60;83.20
58519;DHT22;44310;48.106;12.008;2022-08-07T02:52:19;22.50;82.60
58519;DHT22;44310;48.106;12.008;2022-08-07T02:55:02;22.50;82.30
58519;DHT22;44310;48.106;12.008;2022-08-07T02:57:30;22.50;82.00
58519;DHT22;44310;48.106;12.008;2022-08-07T03:00:04;22.50;82.00
58519;DHT22;44310;48.106;12.008;2022-08-07T03:02:40;22.50;81.90
58519;DHT22;44310;48.106;12.008;2022-08-07T03:05:22;22.50;82.00
58519;DHT22;44310;48.106;12.008;2022-08-07T03:07:52;22.50;81.90
58519;DHT22;44310;48.106;12.008;2022-08-07T03:10:36;22.50;82.00
58519;DHT22;44310;48.106;12.008;2022-08-07T03:13:14;22.50;82.50
58519;DHT22;44310;48.106;12.008;2022-08-07T03:15:46;22.60;82.50
58519;DHT22;44310;48.106;12.008;2022-08-07T03:18:23;22.60;82.70
58519;DHT22;44310;48.106;12.008;2022-08-07T03:21:02;22.60;82.70
58519;DHT22;44310;48.106;12.008;2022-08-07T03:23:37;22.60;82.70
58519;DHT22;44310;48.106;12.008;2022-08-07T03:26:27;22.60;82.60
58519;DHT22;44310;48.106;12.008;2022-08-07T03:28:59;22.50;82.40
58519;DHT22;44310;48.106;12.008;2022-08-07T03:31:29;22.50;82.30
58519;DHT22;44310;48.106;12.008;2022-08-07T03:34:11;22.50;82.30
58519;DHT22;44310;48.106;12.008;2022-08-07T03:36:50;22.60;82.50
58519;DHT22;44310;48.106;12.008;2022-08-07T03:39:20;22.60;82.50
58519;DHT22;44310;48.106;12.008;2022-08-07T03:42:09;22.60;82.40
58519;DHT22;44310;48.106;12.008;2022-08-07T03:44:38;22.60;82.20
58519;DHT22;44310;48.106;12.008;2022-08-07T03:47:06;22.60;81.90
58519;DHT22;44310;48.106;12.008;2022-08-07T03:49:41;22.50;81.70
58519;DHT22;44310;48.106;12.008;2022-08-07T03:52:15;22.50;81.40
58519;DHT22;44310;48.106;12.008;2022-08-07T03:54:57;22.50;81.40
58519;DHT22;44310;48.106;12.008;2022-08-07T03:57:34;22.50;81.20
58519;DHT22;44310;48.106;12.008;2022-08-07T04:00:23;22.50;81.10
58519;DHT22;44310;48.106;12.008;2022-08-07T04:03:00;22.40;81.00
58519;DHT22;44310;48.106;12.008;2022-08-07T04:05:34;22.40;81.00
58519;DHT22;44310;48.106;12.008;2022-08-07T04:08:12;22.40;80.90
58519;DHT22;44310;48.106;12.008;2022-08-07T04:10:44;22.40;80.90
58519;DHT22;44310;48.106;12.008;2022-08-07T04:13:35;22.40;80.90
58519;DHT22;44310;48.106;12.008;2022-08-07T04:16:23;22.40;80.90
58519;DHT22;44310;48.106;12.008;2022-08-07T04:18:59;22.40;80.60
58519;DHT22;44310;48.106;12.008;2022-08-07T04:21:31;22.40;80.70
58519;DHT22;44310;48.106;12.008;2022-08-07T04:24:00;22.50;81.50
58519;DHT22;44310;48.106;12.008;2022-08-07T04:26:33;22.50;81.50
58519;DHT22;44310;48.106;12.008;2022-08-07T04:29:01;22.50;81.40
58519;DHT22;44310;48.106;12.008;2022-08-07T04:31:29;22.50;81.10
58519;DHT22;44310;48.106;12.008;2022-08-07T04:34:17;22.50;80.70
58519;DHT22;44310;48.106;12.008;2022-08-07T04:36:59;22.50;80.70
58519;DHT22;44310;48.106;12.008;2022-08-07T04:39:27;22.50;80.70
58519;DHT22;44310;48.106;12.008;2022-08-07T04:42:02;22.50;80.50
58519;DHT22;44310;48.106;12.008;2022-08-07T04:44:30;22.50;80.40
58519;DHT22;44310;48.106;12.008;2022-08-07T04:47:28;22.50;80.20
58519;DHT22;44310;48.106;12.008;2022-08-07T04:50:47;22.50;80.10
58519;DHT22;44310;48.106;12.008;2022-08-07T04:53:37;22.50;79.90
58519;DHT22;44310;48.106;12.008;2022-08-07T04:56:31;22.50;79.80
58519;DHT22;44310;48.106;12.008;2022-08-07T04:59:50;22.50;79.70
58519;DHT22;44310;48.106;12.008;2022-08-07T05:02:51;22.50;79.60
58519;DHT22;44310;48.106;12.008;2022-08-07T05:05:30;22.50;79.50
58519;DHT22;44310;48.106;12.008;2022-08-07T05:08:25;22.50;79.50
58519;DHT22;44310;48.106;12.008;2022-08-07T05:11:19;22.50;79.40
58519;DHT22;44310;48.106;12.008;2022-08-07T05:13:57;22.50;79.00
58519;DHT22;44310;48.106;12.008;2022-08-07T05:16:46;22.50;79.20
58519;DHT22;44310;48.106;12.008;2022-08-07T05:19:20;22.50;79.10
58519;DHT22;44310;48.106;12.008;2022-08-07T05:22:08;22.50;78.90
58519;DHT22;44310;48.106;12.008;2022-08-07T05:24:38;22.50;78.90
58519;DHT22;44310;48.106;12.008;2022-08-07T05:27:09;22.50;78.70
58519;DHT22;44310;48.106;12.008;2022-08-07T05:29:59;22.60;78.60
58519;DHT22;44310;48.106;12.008;2022-08-07T05:32:28;22.60;78.40
58519;DHT22;44310;48.106;12.008;2022-08-07T05:34:56;22.50;78.20
58519;DHT22;44310;48.106;12.008;2022-08-07T05:37:24;22.60;78.20
58519;DHT22;44310;48.106;12.008;2022-08-07T05:39:53;22.60;78.20
58519;DHT22;44310;48.106;12.008;2022-08-07T05:42:41;22.60;78.30
58519;DHT22;44310;48.106;12.008;2022-08-07T05:45:22;22.50;78.10
58519;DHT22;44310;48.106;12.008;2022-08-07T05:48:11;22.50;78.20
58519;DHT22;44310;48.106;12.008;2022-08-07T05:50:40;22.50;78.20
58519;DHT22;44310;48.106;12.008;2022-08-07T05:53:09;22.50;78.90
58519;DHT22;44310;48.106;12.008;2022-08-07T05:55:57;22.50;78.30
58519;DHT22;44310;48.106;12.008;2022-08-07T05:58:32;22.60;78.30
58519;DHT22;44310;48.106;12.008;2022-08-07T06:01:05;22.50;78.30
58519;DHT22;44310;48.106;12.008;2022-08-07T06:03:38;22.50;78.20
58519;DHT22;44310;48.106;12.008;2022-08-07T06:06:26;22.50;78.30
58519;DHT22;44310;48.106;12.008;2022-08-07T06:08:56;22.60;78.30
58519;DHT22;44310;48.106;12.008;2022-08-07T06:11:24;22.60;78.20
58519;DHT22;44310;48.106;12.008;2022-08-07T06:13:52;22.50;77.90
58519;DHT22;44310;48.106;12.008;2022-08-07T06:16:43;22.50;77.60
58519;DHT22;44310;48.106;12.008;2022-08-07T06:19:21;22.50;77.50
58519;DHT22;44310;48.106;12.008;2022-08-07T06:22:10;22.50;77.30
58519;DHT22;44310;48.106;12.008;2022-08-07T06:24:53;22.50;77.30
58519;DHT22;44310;48.106;12.008;2022-08-07T06:27:27;22.50;77.40
58519;DHT22;44310;48.106;12.008;2022-08-07T06:30:14;22.50;78.00
58519;DHT22;44310;48.106;12.008;2022-08-07T06:33:02;22.50;78.10
58519;DHT22;44310;48.106;12.008;2022-08-07T06:35:30;22.50;77.90
58519;DHT22;44310;48.106;12.008;2022-08-07T06:38:14;22.50;77.80
58519;DHT22;44310;48.106;12.008;2022-08-07T06:40:49;22.50;77.70
58519;DHT22;44310;48.106;12.008;2022-08-07T06:43:21;22.50;77.70
58519;DHT22;44310;48.106;12.008;2022-08-07T06:45:49;22.50;77.70
58519;DHT22;44310;48.106;12.008;2022-08-07T06:48:17;22.50;77.50
58519;DHT22;44310;48.106;12.008;2022-08-07T06:50:53;22.50;77.50
58519;DHT22;44310;48.106;12.008;2022-08-07T06:53:36;22.50;77.60
58519;DHT22;44310;48.106;12.008;2022-08-07T06:56:25;22.50;77.50
58519;DHT22;44310;48.106;12.008;2022-08-07T06:59:29;22.50;77.60
58519;DHT22;44310;48.106;12.008;2022-08-07T07:02:20;22.50;77.60
58519;DHT22;44310;48.106;12.008;2022-08-07T07:05:08;22.50;77.70
58519;DHT22;44310;48.106;12.008;2022-08-07T07:07:39;22.50;77.70
58519;DHT22;44310;48.106;12.008;2022-08-07T07:10:29;22.50;77.90
58519;DHT22;44310;48.106;12.008;2022-08-07T07:13:10;22.50;77.90
58519;DHT22;44310;48.106;12.008;2022-08-07T07:15:45;22.60;78.00
58519;DHT22;44310;48.106;12.008;2022-08-07T07:21:14;22.50;77.90
58519;DHT22;44310;48.106;12.008;2022-08-07T07:23:46;22.50;77.90
58519;DHT22;44310;48.106;12.008;2022-08-07T07:26:35;22.50;77.90
58519;DHT22;44310;48.106;12.008;2022-08-07T07:29:11;22.60;78.10
58519;DHT22;44310;48.106;12.008;2022-08-07T07:32:01;22.60;78.20
58519;DHT22;44310;48.106;12.008;2022-08-07T07:34:30;22.60;78.20
58519;DHT22;44310;48.106;12.008;2022-08-07T07:37:01;22.60;78.20
58519;DHT22;44310;48.106;12.008;2022-08-07T07:39:51;22.60;78.30
58519;DHT22;44310;48.106;12.008;2022-08-07T07:42:24;22.60;78.40
58519;DHT22;44310;48.106;12.008;2022-08-07T07:45:00;22.60;78.50
58519;DHT22;44310;48.106;12.008;2022-08-07T07:47:29;22.60;78.40
58519;DHT22;44310;48.106;12.008;2022-08-07T07:50:20;22.60;78.30
58519;DHT22;44310;48.106;12.008;2022-08-07T07:53:06;22.60;78.30
58519;DHT22;44310;48.106;12.008;2022-08-07T07:55:55;22.60;78.20
58519;DHT22;44310;48.106;12.008;2022-08-07T07:58:34;22.60;78.10
58519;DHT22;44310;48.106;12.008;2022-08-07T08:01:08;22.60;78.10
58519;DHT22;44310;48.106;12.008;2022-08-07T08:03:58;22.60;78.00
58519;DHT22;44310;48.106;12.008;2022-08-07T08:06:41;22.60;77.80
58519;DHT22;44310;48.106;12.008;2022-08-07T08:09:21;22.60;77.90
58519;DHT22;44310;48.106;12.008;2022-08-07T08:11:54;22.50;75.90
58519;DHT22;44310;48.106;12.008;2022-08-07T08:14:32;22.40;75.50
58519;DHT22;44310;48.106;12.008;2022-08-07T08:17:05;22.20;74.40
58519;DHT22;44310;48.106;12.008;2022-08-07T08:20:01;22.10;72.10
58519;DHT22;44310;48.106;12.008;2022-08-07T08:22:51;21.90;72.30
58519;DHT22;44310;48.106;12.008;2022-08-07T08:25:41;21.90;74.10
58519;DHT22;44310;48.106;12.008;2022-08-07T08:28:38;21.90;73.80
58519;DHT22;44310;48.106;12.008;2022-08-07T08:31:25;21.90;74.50
58519;DHT22;44310;48.106;12.008;2022-08-07T08:34:16;21.90;72.90
58519;DHT22;44310;48.106;12.008;2022-08-07T08:36:55;21.90;74.60
58519;DHT22;44310;48.106;12.008;2022-08-07T08:39:25;22.10;75.40
58519;DHT22;44310;48.106;12.008;2022-08-07T08:47:42;22.40;76.50
58519;DHT22;44310;48.106;12.008;2022-08-07T08:53:15;22.50;76.90
58519;DHT22;44310;48.106;12.008;2022-08-07T08:59:03;22.50;77.30
58519;DHT22;44310;48.106;12.008;2022-08-07T09:02:12;22.50;77.70
58519;DHT22;44310;48.106;12.008;2022-08-07T09:10:41;22.60;78.30
58519;DHT22;44310;48.106;12.008;2022-08-07T09:15:58;22.60;78.50
58519;DHT22;44310;48.106;12.008;2022-08-07T09:21:38;22.60;78.60
58519;DHT22;44310;48.106;12.008;2022-08-07T09:28:03;22.60;78.30
58519;DHT22;44310;48.106;12.008;2022-08-07T09:30:51;22.60;78.30
58519;DHT22;44310;48.106;12.008;2022-08-07T09:36:28;22.60;78.20
58519;DHT22;44310;48.106;12.008;2022-08-07T09:41:45;22.70;78.30
58519;DHT22;44310;48.106;12.008;2022-08-07T09:48:12;22.70;78.30
58519;DHT22;44310;48.106;12.008;2022-08-07T09:53:26;22.70;78.60
58519;DHT22;44310;48.106;12.008;2022-08-07T10:13:48;22.70;79.10
58519;DHT22;44310;48.106;12.008;2022-08-07T10:25:23;22.70;79.40
58519;DHT22;44310;48.106;12.008;2022-08-07T10:28:30;22.70;79.40
58519;DHT22;44310;48.106;12.008;2022-08-07T10:37:25;22.70;79.30
58519;DHT22;44310;48.106;12.008;2022-08-07T10:40:44;22.70;79.20
58519;DHT22;44310;48.106;12.008;2022-08-07T10:43:18;22.70;79.20
58519;DHT22;44310;48.106;12.008;2022-08-07T10:46:06;22.70;79.20
58519;DHT22;44310;48.106;12.008;2022-08-07T10:51:34;22.70;79.10
58519;DHT22;44310;48.106;12.008;2022-08-07T11:00:05;22.70;79.40
58519;DHT22;44310;48.106;12.008;2022-08-07T11:14:14;22.70;79.40
58519;DHT22;44310;48.106;12.008;2022-08-07T11:20:21;22.70;79.60
58519;DHT22;44310;48.106;12.008;2022-08-07T11:23:17;22.80;79.60
58519;DHT22;44310;48.106;12.008;2022-08-07T11:29:13;22.70;79.30
58519;DHT22;44310;48.106;12.008;2022-08-07T11:34:38;22.70;79.40
58519;DHT22;44310;48.106;12.008;2022-08-07T11:40:56;22.80;79.10
58519;DHT22;44310;48.106;12.008;2022-08-07T11:43:31;22.70;79.10
58519;DHT22;44310;48.106;12.008;2022-08-07T11:58:25;22.80;78.20
58519;DHT22;44310;48.106;12.008;2022-08-07T12:07:22;22.80;78.40
58519;DHT22;44310;48.106;12.008;2022-08-07T12:10:11;22.80;78.60
58519;DHT22;44310;48.106;12.008;2022-08-07T12:12:47;22.80;78.60
58519;DHT22;44310;48.106;12.008;2022-08-07T12:15:22;22.80;78.50
58519;DHT22;44310;48.106;12.008;2022-08-07T12:18:26;22.80;78.50
58519;DHT22;44310;48.106;12.008;2022-08-07T12:24:24;22.80;78.50
58519;DHT22;44310;48.106;12.008;2022-08-07T12:27:15;22.80;78.50
58519;DHT22;44310;48.106;12.008;2022-08-07T12:30:12;22.80;78.40
58519;DHT22;44310;48.106;12.008;2022-08-07T12:33:01;22.80;78.20
58519;DHT22;44310;48.106;12.008;2022-08-07T12:35:53;22.80;78.50
58519;DHT22;44310;48.106;12.008;2022-08-07T12:38:26;22.80;78.40
58519;DHT22;44310;48.106;12.008;2022-08-07T12:41:09;22.80;78.10
58519;DHT22;44310;48.106;12.008;2022-08-07T12:43:39;22.80;78.40
58519;DHT22;44310;48.106;12.008;2022-08-07T12:49:43;22.80;77.70
58519;DHT22;44310;48.106;12.008;2022-08-07T12:55:37;22.90;77.70
58519;DHT22;44310;48.106;12.008;2022-08-07T12:58:30;22.90;77.30
58519;DHT22;44310;48.106;12.008;2022-08-07T13:18:33;22.90;73.10
58519;DHT22;44310;48.106;12.008;2022-08-07T13:21:21;23.00;74.10
58519;DHT22;44310;48.106;12.008;2022-08-07T13:24:29;23.00;74.50
58519;DHT22;44310;48.106;12.008;2022-08-07T13:27:26;23.00;74.80
58519;DHT22;44310;48.106;12.008;2022-08-07T13:30:16;23.00;74.80
58519;DHT22;44310;48.106;12.008;2022-08-07T13:33:04;23.10;75.30
58519;DHT22;44310;48.106;12.008;2022-08-07T13:36:04;23.10;75.30
58519;DHT22;44310;48.106;12.008;2022-08-07T13:38:57;23.10;75.60
58519;DHT22;44310;48.106;12.008;2022-08-07T13:41:43;23.00;76.00
58519;DHT22;44310;48.106;12.008;2022-08-07T13:44:18;23.00;76.30
58519;DHT22;44310;48.106;12.008;2022-08-07T13:46:59;23.00;76.60
58519;DHT22;44310;48.106;12.008;2022-08-07T13:49:43;23.00;77.00
58519;DHT22;44310;48.106;12.008;2022-08-07T13:52:32;23.00;77.40
58519;DHT22;44310;48.106;12.008;2022-08-07T13:55:15;23.00;77.60
58519;DHT22;44310;48.106;12.008;2022-08-07T13:58:04;23.00;77.50
58519;DHT22;44310;48.106;12.008;2022-08-07T14:01:00;23.00;76.80
58519;DHT22;44310;48.106;12.008;2022-08-07T14:03:36;23.00;77.10
58519;DHT22;44310;48.106;12.008;2022-08-07T14:06:45;23.00;78.40
58519;DHT22;44310;48.106;12.008;2022-08-07T14:12:21;23.10;77.60
58519;DHT22;44310;48.106;12.008;2022-08-07T14:15:00;23.10;78.80
58519;DHT22;44310;48.106;12.008;2022-08-07T14:17:30;23.10;79.00
58519;DHT22;44310;48.106;12.008;2022-08-07T14:20:25;23.10;78.80
58519;DHT22;44310;48.106;12.008;2022-08-07T14:23:15;23.00;71.60
58519;DHT22;44310;48.106;12.008;2022-08-07T14:26:10;22.90;73.80
58519;DHT22;44310;48.106;12.008;2022-08-07T14:29:00;22.70;73.40
58519;DHT22;44310;48.106;12.008;2022-08-07T14:31:49;22.70;74.40
58519;DHT22;44310;48.106;12.008;2022-08-07T14:34:26;22.70;75.40
58519;DHT22;44310;48.106;12.008;2022-08-07T14:37:01;22.70;75.70
58519;DHT22;44310;48.106;12.008;2022-08-07T14:39:36;22.70;76.20
58519;DHT22;44310;48.106;12.008;2022-08-07T14:42:26;22.80;76.40
58519;DHT22;44310;48.106;12.008;2022-08-07T14:58:34;22.50;74.70
58519;DHT22;44310;48.106;12.008;2022-08-07T15:01:09;22.50;76.00
58519;DHT22;44310;48.106;12.008;2022-08-07T15:04:00;22.50;76.10
58519;DHT22;44310;48.106;12.008;2022-08-07T15:06:34;22.40;76.20
58519;DHT22;44310;48.106;12.008;2022-08-07T15:09:14;22.50;76.60
58519;DHT22;44310;48.106;12.008;2022-08-07T15:12:12;22.50;76.50
58519;DHT22;44310;48.106;12.008;2022-08-07T15:15:02;22.50;76.40
58519;DHT22;44310;48.106;12.008;2022-08-07T15:17:39;22.50;76.30
58519;DHT22;44310;48.106;12.008;2022-08-07T15:20:25;22.50;76.40
58519;DHT22;44310;48.106;12.008;2022-08-07T15:23:01;22.50;76.50
58519;DHT22;44310;48.106;12.008;2022-08-07T15:25:54;22.50;76.40
58519;DHT22;44310;48.106;12.008;2022-08-07T15:28:24;22.50;76.10
58519;DHT22;44310;48.106;12.008;2022-08-07T15:31:09;22.50;76.00
58519;DHT22;44310;48.106;12.008;2022-08-07T15:33:59;22.50;76.00
58519;DHT22;44310;48.106;12.008;2022-08-07T15:36:27;22.50;75.90
58519;DHT22;44310;48.106;12.008;2022-08-07T15:39:16;22.50;75.40
58519;DHT22;44310;48.106;12.008;2022-08-07T15:42:01;22.50;75.60
58519;DHT22;44310;48.106;12.008;2022-08-07T15:44:49;22.50;75.20
58519;DHT22;44310;48.106;12.008;2022-08-07T15:47:19;22.50;75.40
58519;DHT22;44310;48.106;12.008;2022-08-07T15:50:14;22.50;75.20
58519;DHT22;44310;48.106;12.008;2022-08-07T15:53:09;22.50;75.10
58519;DHT22;44310;48.106;12.008;2022-08-07T15:55:55;22.50;75.10
58519;DHT22;44310;48.106;12.008;2022-08-07T15:58:53;22.50;74.90
58519;DHT22;44310;48.106;12.008;2022-08-07T16:01:27;22.50;74.90
58519;DHT22;44310;48.106;12.008;2022-08-07T16:04:08;22.40;74.90
58519;DHT22;44310;48.106;12.008;2022-08-07T16:06:53;22.40;74.80
58519;DHT22;44310;48.106;12.008;2022-08-07T16:09:31;22.50;74.80
58519;DHT22;44310;48.106;12.008;2022-08-07T16:12:11;22.50;74.60
58519;DHT22;44310;48.106;12.008;2022-08-07T16:15:33;22.40;74.50
58519;DHT22;44310;48.106;12.008;2022-08-07T16:21:46;22.40;74.40
58519;DHT22;44310;48.106;12.008;2022-08-07T16:24:40;22.40;74.50
58519;DHT22;44310;48.106;12.008;2022-08-07T16:27:46;22.40;74.20
58519;DHT22;44310;48.106;12.008;2022-08-07T16:30:26;22.40;74.30
58519;DHT22;44310;48.106;12.008;2022-08-07T16:33:11;22.40;74.30
58519;DHT22;44310;48.106;12.008;2022-08-07T16:43:34;22.40;74.20
58519;DHT22;44310;48.106;12.008;2022-08-07T16:50:15;22.40;74.30
58519;DHT22;44310;48.106;12.008;2022-08-07T16:56:19;22.40;73.90
58519;DHT22;44310;48.106;12.008;2022-08-07T16:59:18;22.40;74.00
58519;DHT22;44310;48.106;12.008;2022-08-07T17:11:56;22.20;73.00
58519;DHT22;44310;48.106;12.008;2022-08-07T17:14:42;22.20;72.40
58519;DHT22;44310;48.106;12.008;2022-08-07T17:20:30;22.10;72.30
58519;DHT22;44310;48.106;12.008;2022-08-07T17:23:00;22.10;71.90
58519;DHT22;44310;48.106;12.008;2022-08-07T17:25:45;22.10;72.10
58519;DHT22;44310;48.106;12.008;2022-08-07T17:31:21;22.00;71.80
58519;DHT22;44310;48.106;12.008;2022-08-07T17:33:57;22.00;71.70
58519;DHT22;44310;48.106;12.008;2022-08-07T17:36:50;21.90;71.50
58519;DHT22;44310;48.106;12.008;2022-08-07T17:39:43;21.90;71.90
58519;DHT22;44310;48.106;12.008;2022-08-07T17:43:22;22.00;71.70
58519;DHT22;44310;48.106;12.008;2022-08-07T17:45:49;22.00;71.30
58519;DHT22;44310;48.106;12.008;2022-08-07T17:48:31;22.00;71.50
58519;DHT22;44310;48.106;12.008;2022-08-07T17:51:21;21.90;71.30
58519;DHT22;44310;48.106;12.008;2022-08-07T17:54:19;21.90;72.60
58519;DHT22;44310;48.106;12.008;2022-08-07T17:57:19;21.90;72.60
58519;DHT22;44310;48.106;12.008;2022-08-07T18:00:03;22.00;71.80
58519;DHT22;44310;48.106;12.008;2022-08-07T18:02:39;21.90;71.90
58519;DHT22;44310;48.106;12.008;2022-08-07T18:05:43;21.90;72.10
58519;DHT22;44310;48.106;12.008;2022-08-07T18:08:53;21.90;72.60
58519;DHT22;44310;48.106;12.008;2022-08-07T18:15:10;21.90;72.10
58519;DHT22;44310;48.106;12.008;2022-08-07T18:18:00;21.90;72.00
58519;DHT22;44310;48.106;12.008;2022-08-07T18:21:01;21.90;72.10
58519;DHT22;44310;48.106;12.008;2022-08-07T18:24:17;21.90;71.90
58519;DHT22;44310;48.106;12.008;2022-08-07T18:27:18;21.80;71.10
58519;DHT22;44310;48.106;12.008;2022-08-07T18:30:08;21.80;71.20
58519;DHT22;44310;48.106;12.008;2022-08-07T18:48:07;22.00;72.70
58519;DHT22;44310;48.106;12.008;2022-08-07T18:50:58;22.00;72.00
58519;DHT22;44310;48.106;12.008;2022-08-07T18:59:20;22.10;74.00
58519;DHT22;44310;48.106;12.008;2022-08-07T19:02:31;22.10;73.20
58519;DHT22;44310;48.106;12.008;2022-08-07T19:05:41;22.20;75.50
58519;DHT22;44310;48.106;12.008;2022-08-07T19:11:31;22.20;75.40
58519;DHT22;44310;48.106;12.008;2022-08-07T19:18:21;22.20;78.30
58519;DHT22;44310;48.106;12.008;2022-08-07T19:21:12;22.20;77.40
58519;DHT22;44310;48.106;12.008;2022-08-07T19:24:05;22.20;76.10
58519;DHT22;44310;48.106;12.008;2022-08-07T19:26:42;22.20;77.90
58519;DHT22;44310;48.106;12.008;2022-08-07T19:29:34;22.10;76.90
58519;DHT22;44310;48.106;12.008;2022-08-07T19:32:24;22.10;76.60
58519;DHT22;44310;48.106;12.008;2022-08-07T19:35:19;22.10;77.00
58519;DHT22;44310;48.106;12.008;2022-08-07T19:38:00;22.10;77.90
58519;DHT22;44310;48.106;12.008;2022-08-07T19:40:34;22.00;75.60
58519;DHT22;44310;48.106;12.008;2022-08-07T19:43:22;22.00;76.20
58519;DHT22;44310;48.106;12.008;2022-08-07T19:46:10;22.00;76.40
58519;DHT22;44310;48.106;12.008;2022-08-07T19:48:58;21.90;78.20
58519;DHT22;44310;48.106;12.008;2022-08-07T19:51:26;21.90;76.50
58519;DHT22;44310;48.106;12.008;2022-08-07T19:54:14;21.90;78.40
58519;DHT22;44310;48.106;12.008;2022-08-07T19:57:01;21.90;75.70
58519;DHT22;44310;48.106;12.008;2022-08-07T20:00:00;21.80;74.50
58519;DHT22;44310;48.106;12.008;2022-08-07T20:02:39;21.70;74.60
58519;DHT22;44310;48.106;12.008;2022-08-07T20:05:30;21.70;76.00
58519;DHT22;44310;48.106;12.008;2022-08-07T20:08:23;21.70;75.80
58519;DHT22;44310;48.106;12.008;2022-08-07T20:10:55;21.60;76.40
58519;DHT22;44310;48.106;12.008;2022-08-07T20:16:11;21.70;77.00
58519;DHT22;44310;48.106;12.008;2022-08-07T20:18:58;21.70;74.30
58519;DHT22;44310;48.106;12.008;2022-08-07T20:21:31;21.60;73.90
58519;DHT22;44310;48.106;12.008;2022-08-07T20:24:34;21.50;75.20
58519;DHT22;44310;48.106;12.008;2022-08-07T20:27:06;21.50;74.20
58519;DHT22;44310;48.106;12.008;2022-08-07T20:29:43;21.50;74.70
58519;DHT22;44310;48.106;12.008;2022-08-07T20:32:35;21.50;74.40
58519;DHT22;44310;48.106;12.008;2022-08-07T20:35:10;21.50;76.70
58519;DHT22;44310;48.106;12.008;2022-08-07T20:37:50;21.50;76.10
58519;DHT22;44310;48.106;12.008;2022-08-07T20:40:28;21.50;74.10
58519;DHT22;44310;48.106;12.008;2022-08-07T20:43:03;21.40;74.40
58519;DHT22;44310;48.106;12.008;2022-08-07T20:45:53;21.40;74.20
58519;DHT22;44310;48.106;12.008;2022-08-07T20:48:42;21.40;74.90